Time;durP1;ratioP1;P1;durP2;ratioP2;P2;SDS_P1;SDS_P2;PMS_P1;PMS_P2;Temp;Humidity;BMP_temperature;BMP_pressure;BME280_temperature;BME280_humidity;BME280_pressure;Samples;Min_cycle;Max_cycle;Signal;HPM_P1;HPM_P2
2021/08/03 00:00:31;;;;;;;5.50;1.80;;;;;;;14.58;76.17;101435.25;3576903;40;20234;-82
2021/08/03 00:02:58;;;;;;;2.60;1.60;;;;;;;14.65;75.79;101431.88;3576270;40;20222;-80
2021/08/03 00:05:27;;;;;;;2.13;1.33;;;;;;;14.48;76.24;101443.72;3576689;40;20246;-80
2021/08/03 00:08:22;;;;;;;3.73;1.60;;;;;;;14.49;76.20;101449.72;3576257;40;20237;-81
2021/08/03 00:10:49;;;;;;;2.57;1.60;;;;;;;14.28;76.55;101445.13;3576644;40;20233;-81
2021/08/03 00:13:15;;;;;;;1.60;1.20;;;;;;;14.29;76.09;101444.31;3575909;40;20280;-80
2021/08/03 00:15:42;;;;;;;1.97;1.53;;;;;;;14.48;75.14;101442.81;3575765;40;20735;-81
2021/08/03 00:18:07;;;;;;;1.93;1.50;;;;;;;14.74;74.90;101450.03;3575419;40;20237;-81
2021/08/03 00:20:34;;;;;;;2.27;1.50;;;;;;;14.48;75.04;101443.72;3583267;40;20227;-80
2021/08/03 00:23:01;;;;;;;4.77;1.80;;;;;;;14.28;75.88;101444.28;3577081;40;20226;-81
2021/08/03 00:25:27;;;;;;;3.83;1.40;;;;;;;14.50;75.60;101449.72;3576661;40;20617;-81
2021/08/03 00:27:53;;;;;;;1.73;1.43;;;;;;;14.31;76.50;101446.91;3576953;40;20244;-82
2021/08/03 00:30:19;;;;;;;3.10;1.83;;;;;;;14.26;76.67;101445.94;3576142;40;20320;-80
2021/08/03 00:32:46;;;;;;;4.20;1.47;;;;;;;14.15;76.91;101452.63;3577154;40;20238;-81
2021/08/03 00:35:12;;;;;;;1.60;1.13;;;;;;;14.12;77.31;101450.00;3577479;40;20321;-81
2021/08/03 00:37:37;;;;;;;2.47;1.60;;;;;;;14.51;76.12;101455.75;3578640;40;20227;-81
2021/08/03 00:40:04;;;;;;;2.67;2.00;;;;;;;14.76;75.55;101453.53;3576862;40;20250;-80
2021/08/03 00:42:30;;;;;;;2.77;1.80;;;;;;;14.96;74.82;101456.34;3577836;40;20271;-80
2021/08/03 00:44:55;;;;;;;2.87;1.90;;;;;;;15.30;73.34;101448.97;3577240;40;20230;-79
2021/08/03 00:47:21;;;;;;;5.27;2.10;;;;;;;15.41;72.65;101456.84;3577346;40;20234;-80
2021/08/03 00:49:47;;;;;;;4.90;2.03;;;;;;;15.29;73.79;101454.13;3577767;40;20229;-81
2021/08/03 00:52:14;;;;;;;3.97;2.13;;;;;;;15.24;73.58;101459.22;3576626;40;20226;-80
2021/08/03 00:54:40;;;;;;;5.70;2.30;;;;;;;15.30;73.35;101454.13;3577179;40;20632;-81
2021/08/03 00:57:07;;;;;;;4.00;2.17;;;;;;;15.27;73.51;101464.41;3577832;40;20238;-79
2021/08/03 00:59:33;;;;;;;5.67;2.10;;;;;;;15.21;73.55;101460.91;3576883;40;20235;-81
2021/08/03 01:01:59;;;;;;;3.73;1.93;;;;;;;15.18;73.82;101460.84;3576400;40;20237;-79
2021/08/03 01:04:24;;;;;;;4.73;2.53;;;;;;;15.04;73.97;101458.16;3576444;40;20226;-80
2021/08/03 01:07:17;;;;;;;3.47;2.00;;;;;;;15.10;74.45;101455.63;3576790;40;20226;-80
2021/08/03 01:10:01;;;;;;;2.43;1.87;;;;;;;15.07;74.97;101457.31;3575438;40;20289;-81
2021/08/03 01:12:30;;;;;;;4.47;2.00;;;;;;;15.05;74.66;101459.88;3576364;40;20230;-80
2021/08/03 01:15:02;;;;;;;3.67;2.37;;;;;;;14.94;75.07;101458.91;3575760;40;22282;-81
2021/08/03 01:17:35;;;;;;;4.17;2.13;;;;;;;14.88;75.55;101460.53;3585431;39;20223;-81
2021/08/03 01:20:18;;;;;;;3.60;2.40;;;;;;;15.03;75.70;101468.44;3583286;40;20250;-81
2021/08/03 01:23:18;;;;;;;4.57;2.20;;;;;;;14.98;75.56;101465.81;3576476;40;20234;-81
2021/08/03 01:25:54;;;;;;;5.37;2.23;;;;;;;15.05;75.59;101469.34;3575430;40;20724;-80
2021/08/03 01:28:33;;;;;;;5.40;2.23;;;;;;;14.90;76.32;101466.56;3574241;40;20249;-80
2021/08/03 01:31:06;;;;;;;3.97;2.30;;;;;;;15.00;75.65;101452.91;3575526;40;20295;-81
2021/08/03 01:33:34;;;;;;;3.47;1.90;;;;;;;15.02;74.99;101461.56;3574195;40;20222;-79
2021/08/03 01:36:01;;;;;;;5.20;2.27;;;;;;;15.17;74.82;101464.28;3574879;40;20238;-80
2021/08/03 01:38:29;;;;;;;2.23;1.90;;;;;;;15.09;74.80;101468.50;3574502;40;20243;-79
2021/08/03 01:41:05;;;;;;;3.53;2.40;;;;;;;14.80;75.92;101463.03;3573310;40;20234;-80
2021/08/03 01:43:33;;;;;;;3.07;2.37;;;;;;;14.69;76.73;101471.47;3574255;40;20265;-79
2021/08/03 01:45:59;;;;;;;3.23;1.87;;;;;;;14.62;76.93;101474.81;3574039;40;20222;-80
2021/08/03 01:48:26;;;;;;;2.33;1.90;;;;;;;14.47;77.69;101469.44;3572722;40;20266;-80
2021/08/03 01:50:53;;;;;;;4.67;2.60;;;;;;;14.64;77.41;101473.97;3573716;40;20263;-78
2021/08/03 01:53:20;;;;;;;2.70;2.10;;;;;;;14.93;76.14;101464.91;3573595;40;20222;-80
2021/08/03 01:55:46;;;;;;;4.17;2.20;;;;;;;14.84;76.29;101480.28;3573863;40;20273;-79
2021/08/03 01:58:14;;;;;;;2.73;1.80;;;;;;;14.58;77.43;101478.19;3574499;40;20241;-80
2021/08/03 02:00:42;;;;;;;2.90;1.70;;;;;;;14.63;77.42;101472.25;3572873;40;20219;-81
2021/08/03 02:03:09;;;;;;;3.70;2.53;;;;;;;14.72;77.09;101472.38;3573125;40;20227;-80
2021/08/03 02:05:34;;;;;;;4.93;2.27;;;;;;;14.71;77.24;101474.91;3574208;40;20265;-80
2021/08/03 02:08:00;;;;;;;4.97;2.73;;;;;;;14.71;76.87;101467.19;3574228;40;20231;-81
2021/08/03 02:10:25;;;;;;;4.17;2.57;;;;;;;14.67;76.89;101473.16;3573405;40;20230;-80
2021/08/03 02:12:51;;;;;;;3.40;2.23;;;;;;;14.65;77.15;101477.44;3574119;40;20284;-81
2021/08/03 02:15:16;;;;;;;6.07;2.63;;;;;;;14.60;77.84;101474.78;3581119;40;20242;-80
2021/08/03 02:17:42;;;;;;;4.33;2.10;;;;;;;14.56;77.65;101470.47;3573888;40;20234;-80
2021/08/03 02:20:07;;;;;;;4.20;2.97;;;;;;;14.79;76.39;101474.19;3573667;40;20242;-80
2021/08/03 02:22:33;;;;;;;3.57;2.50;;;;;;;14.82;76.46;101469.06;3572683;40;20222;-80
2021/08/03 02:24:59;;;;;;;4.67;2.57;;;;;;;14.94;76.37;101469.22;3573358;40;20230;-80
2021/08/03 02:27:24;;;;;;;2.63;1.97;;;;;;;14.90;76.71;101469.13;3572527;40;20234;-81
2021/08/03 02:29:50;;;;;;;5.90;1.87;;;;;;;14.74;77.30;101475.81;3573585;40;20627;-80
2021/08/03 02:32:20;;;;;;;3.80;2.50;;;;;;;14.80;77.43;101468.19;3582260;40;20253;-80
2021/08/03 02:35:07;;;;;;;5.30;2.77;;;;;;;15.25;75.82;101470.41;3575850;40;20245;-82
2021/08/03 02:37:36;;;;;;;3.97;2.50;;;;;;;15.01;76.31;101476.16;3574190;40;20237;-82
2021/08/03 02:40:05;;;;;;;3.83;2.13;;;;;;;14.85;77.05;101470.81;3574349;40;20258;-80
2021/08/03 02:42:32;;;;;;;3.60;1.97;;;;;;;14.74;77.29;101473.25;3574922;40;20242;-81
2021/08/03 02:45:01;;;;;;;4.00;2.57;;;;;;;14.85;76.80;101473.38;3575314;40;20238;-81
2021/08/03 02:47:40;;;;;;;2.03;1.60;;;;;;;14.68;77.28;101474.91;3574882;40;20230;-81
2021/08/03 02:50:08;;;;;;;1.60;1.47;;;;;;;14.55;77.91;101478.16;3575688;40;20249;-82
2021/08/03 02:52:41;;;;;;;2.97;2.37;;;;;;;14.43;78.04;101471.13;3575794;40;20237;-80
2021/08/03 02:55:29;;;;;;;2.70;2.03;;;;;;;14.39;78.31;101473.63;3575310;40;20238;-82
2021/08/03 02:58:00;;;;;;;3.50;2.70;;;;;;;14.52;78.01;101472.94;3573339;40;20230;-81
2021/08/03 03:00:27;;;;;;;2.77;2.00;;;;;;;14.43;78.31;101467.66;3576475;40;20764;-82
2021/08/03 03:02:52;;;;;;;4.27;2.80;;;;;;;14.31;78.52;101462.38;3577465;40;20233;-81
2021/08/03 03:05:26;;;;;;;3.13;2.10;;;;;;;14.24;78.23;101469.13;3575888;40;20234;-81
2021/08/03 03:08:05;;;;;;;4.20;2.20;;;;;;;14.26;78.34;101476.88;3574446;40;20230;-80
2021/08/03 03:10:35;;;;;;;2.77;1.80;;;;;;;14.19;78.79;101462.16;3574935;40;20241;-81
2021/08/03 03:13:12;;;;;;;2.63;2.23;;;;;;;14.14;78.22;101461.22;3576295;40;20223;-81
2021/08/03 03:15:40;;;;;;;2.93;2.00;;;;;;;14.10;78.48;101457.72;3575345;40;20234;-81
2021/08/03 03:18:07;;;;;;;2.70;2.20;;;;;;;14.03;78.64;101452.44;3576871;40;20230;-81
2021/08/03 03:20:33;;;;;;;2.37;1.90;;;;;;;13.90;78.67;101461.69;3576954;40;20237;-80
2021/08/03 03:23:00;;;;;;;3.60;2.10;;;;;;;13.77;78.71;101452.03;3576645;40;20234;-81
2021/08/03 03:25:26;;;;;;;3.63;1.83;;;;;;;13.70;78.29;101457.06;3575677;40;20320;-81
2021/08/03 03:27:57;;;;;;;2.83;1.93;;;;;;;13.62;78.52;101456.09;3575342;40;20296;-79
2021/08/03 03:30:24;;;;;;;2.27;1.97;;;;;;;13.54;78.70;101455.09;3574074;40;20618;-80
2021/08/03 03:32:50;;;;;;;2.70;1.57;;;;;;;13.50;78.39;101456.75;3574322;40;20241;-80
2021/08/03 03:35:19;;;;;;;3.00;2.43;;;;;;;13.43;78.97;101460.03;3575455;40;20667;-81
2021/08/03 03:37:45;;;;;;;2.93;2.10;;;;;;;13.36;78.56;101460.78;3575810;40;20254;-80
2021/08/03 03:40:15;;;;;;;2.30;1.70;;;;;;;13.31;78.73;101456.38;3575518;40;20253;-81
2021/08/03 03:42:41;;;;;;;2.40;2.20;;;;;;;13.25;78.01;101464.00;3575731;40;20234;-81
2021/08/03 03:45:07;;;;;;;5.33;2.70;;;;;;;13.17;78.23;101470.69;3576117;40;20234;-80
2021/08/03 03:47:36;;;;;;;2.70;2.50;;;;;;;13.14;78.23;101468.06;3574671;40;20227;-80
2021/08/03 03:50:08;;;;;;;2.20;2.00;;;;;;;13.14;79.10;101471.50;3572916;40;20332;-80
2021/08/03 03:52:40;;;;;;;3.40;2.40;;;;;;;13.21;78.54;101475.06;3574270;40;20226;-80
2021/08/03 03:55:08;;;;;;;3.33;2.17;;;;;;;13.16;78.95;101477.53;3574655;40;20226;-80
2021/08/03 03:57:35;;;;;;;2.90;2.50;;;;;;;13.09;78.92;101479.97;3574393;40;20230;-79
2021/08/03 04:00:01;;;;;;;2.00;1.63;;;;;;;13.04;78.80;101482.47;3573935;40;20239;-80
2021/08/03 04:02:29;;;;;;;2.20;1.93;;;;;;;12.98;78.92;101479.75;3573192;40;20221;-80
2021/08/03 04:04:59;;;;;;;3.67;2.70;;;;;;;13.13;79.02;101479.19;3574748;40;20237;-81
2021/08/03 04:07:24;;;;;;;2.63;2.43;;;;;;;13.13;79.18;101484.34;3576934;40;20237;-81
2021/08/03 04:10:00;;;;;;;3.27;2.83;;;;;;;13.10;79.69;101487.72;3577697;40;20238;-81
2021/08/03 04:12:25;;;;;;;3.50;2.87;;;;;;;13.22;79.58;101492.22;3577880;40;20295;-80
2021/08/03 04:14:51;;;;;;;3.47;2.70;;;;;;;13.22;80.09;101485.34;3578439;40;20226;-81
2021/08/03 04:17:16;;;;;;;2.60;2.40;;;;;;;13.25;79.49;101493.13;3577806;40;20233;-81
2021/08/03 04:19:41;;;;;;;2.80;2.07;;;;;;;13.34;79.82;101495.88;3577300;40;20231;-81
2021/08/03 04:22:06;;;;;;;3.83;2.93;;;;;;;13.43;79.43;101502.91;3578068;40;20930;-81
2021/08/03 04:24:32;;;;;;;3.47;2.80;;;;;;;13.50;79.02;101502.19;3577667;40;20245;-81
2021/08/03 04:26:57;;;;;;;3.67;2.93;;;;;;;13.69;79.06;101496.53;3577411;40;20239;-81
2021/08/03 04:29:22;;;;;;;5.83;2.67;;;;;;;13.86;78.79;101498.53;3576811;40;20273;-80
2021/08/03 04:31:47;;;;;;;4.40;2.83;;;;;;;13.82;78.84;101495.88;3576869;40;20246;-81
2021/08/03 04:34:13;;;;;;;3.80;2.20;;;;;;;13.87;79.25;101495.13;3576789;40;20234;-81
2021/08/03 04:36:38;;;;;;;2.73;2.07;;;;;;;13.79;78.76;101501.84;3575853;40;20227;-79
2021/08/03 04:39:10;;;;;;;3.83;2.47;;;;;;;13.83;78.45;101501.06;3577291;40;20316;-82
2021/08/03 04:41:35;;;;;;;5.23;2.80;;;;;;;13.86;78.48;101502.81;3577451;40;20284;-81
2021/08/03 04:44:00;;;;;;;4.07;2.63;;;;;;;13.87;77.97;101497.72;3578183;40;20234;-81
2021/08/03 04:46:26;;;;;;;3.07;2.13;;;;;;;13.84;79.19;101496.78;3577425;40;20230;-82
2021/08/03 04:48:51;;;;;;;2.70;2.30;;;;;;;13.81;79.25;101504.47;3576552;40;20249;-81
2021/08/03 04:51:16;;;;;;;3.47;2.70;;;;;;;14.10;78.67;101508.38;3577417;40;20214;-81
2021/08/03 04:53:41;;;;;;;3.67;2.87;;;;;;;14.27;77.63;101512.97;3565211;40;20262;-80
2021/08/03 04:56:07;;;;;;;3.97;2.77;;;;;;;14.41;78.73;101511.44;3574104;40;20229;-80
2021/08/03 04:58:32;;;;;;;4.30;2.73;;;;;;;14.32;77.91;101515.63;3583795;40;20335;-81
2021/08/03 05:00:57;;;;;;;5.77;3.20;;;;;;;14.53;77.48;101509.06;3574548;40;20649;-81
2021/08/03 05:03:22;;;;;;;4.17;3.20;;;;;;;14.45;77.56;101509.81;3575990;40;20231;-81
2021/08/03 05:05:48;;;;;;;5.00;3.40;;;;;;;14.56;78.30;101505.66;3576290;40;20259;-82
2021/08/03 05:08:13;;;;;;;5.50;3.70;;;;;;;14.88;77.87;101505.22;3577791;40;20653;-81
2021/08/03 05:10:39;;;;;;;3.97;3.40;;;;;;;15.37;77.63;101501.56;3577317;40;20273;-80
2021/08/03 05:13:04;;;;;;;7.00;3.30;;;;;;;15.63;75.77;101494.91;3577747;40;20243;-82
2021/08/03 05:15:29;;;;;;;5.73;3.63;;;;;;;15.60;75.39;101500.03;3577202;40;20238;-82
2021/08/03 05:17:55;;;;;;;3.70;3.20;;;;;;;15.79;74.58;101507.97;3577124;40;20590;-82
2021/08/03 05:20:20;;;;;;;5.13;3.37;;;;;;;15.98;73.48;101506.44;3585528;40;20246;-81
2021/08/03 05:22:46;;;;;;;6.47;3.17;;;;;;;15.78;73.33;101511.41;3576230;40;20254;-81
2021/08/03 05:25:12;;;;;;;4.30;3.60;;;;;;;15.83;73.99;101509.75;3568293;40;20242;-81
2021/08/03 05:27:38;;;;;;;5.13;3.63;;;;;;;15.91;73.80;101514.97;3568075;40;20231;-82
2021/08/03 05:30:04;;;;;;;4.30;2.97;;;;;;;15.50;75.20;101524.03;3567671;40;20329;-83
2021/08/03 05:32:29;;;;;;;4.73;2.90;;;;;;;15.54;74.43;101524.09;3567515;40;20260;-81
2021/08/03 05:34:54;;;;;;;6.40;3.50;;;;;;;15.90;72.72;101524.44;3568127;40;20283;-82
2021/08/03 05:37:20;;;;;;;3.97;3.47;;;;;;;15.88;72.79;101525.28;3567974;40;20223;-80
2021/08/03 05:39:45;;;;;;;4.63;3.50;;;;;;;15.82;72.94;101520.94;3574056;40;20251;-82
2021/08/03 05:42:10;;;;;;;4.37;3.93;;;;;;;15.60;73.17;101529.31;3580195;40;20253;-83
2021/08/03 05:44:36;;;;;;;5.80;3.50;;;;;;;15.36;75.14;101526.50;3578745;40;20230;-82
2021/08/03 05:47:01;;;;;;;3.53;2.80;;;;;;;15.20;76.20;101523.69;3578664;40;20238;-82
2021/08/03 05:49:27;;;;;;;3.40;2.50;;;;;;;15.14;76.31;101527.06;3578450;40;20649;-83
2021/08/03 05:51:52;;;;;;;3.90;3.17;;;;;;;15.21;76.55;101525.41;3579072;40;20227;-82
2021/08/03 05:54:18;;;;;;;3.00;2.70;;;;;;;15.24;76.94;101526.31;3586211;40;20230;-83
2021/08/03 05:56:43;;;;;;;4.10;2.80;;;;;;;15.32;76.99;101528.97;3578456;40;20219;-84
2021/08/03 05:59:08;;;;;;;3.23;2.30;;;;;;;15.38;76.94;101527.34;3578351;40;20242;-83
2021/08/03 06:01:34;;;;;;;5.13;3.00;;;;;;;15.40;76.68;101528.25;3578254;40;20636;-83
2021/08/03 06:04:00;;;;;;;3.53;2.67;;;;;;;15.54;76.98;101524.09;3578566;40;20618;-84
2021/08/03 06:06:26;;;;;;;4.00;3.50;;;;;;;15.64;75.59;101522.47;3579180;40;20276;-81
2021/08/03 06:08:53;;;;;;;3.53;2.87;;;;;;;15.59;75.94;101516.38;3578001;40;20238;-81
2021/08/03 06:11:25;;;;;;;3.50;1.97;;;;;;;15.62;75.96;101525.06;3578100;40;20234;-81
2021/08/03 06:13:53;;;;;;;4.03;3.30;;;;;;;15.62;76.17;101521.59;3578201;40;20226;-81
2021/08/03 06:16:20;;;;;;;3.83;3.40;;;;;;;15.77;76.06;101524.31;3577591;40;20257;-82
2021/08/03 06:18:47;;;;;;;5.30;3.70;;;;;;;15.80;75.74;101520.03;3576462;40;20308;-81
2021/08/03 06:21:13;;;;;;;3.77;3.10;;;;;;;15.74;76.47;101519.13;3576074;40;20234;-81
2021/08/03 06:23:41;;;;;;;3.53;2.80;;;;;;;15.92;75.77;101524.44;3576660;40;20219;-81
2021/08/03 06:26:08;;;;;;;3.10;2.30;;;;;;;15.97;75.08;101520.22;3577219;40;20226;-80
2021/08/03 06:28:35;;;;;;;3.30;2.20;;;;;;;16.02;75.00;101521.94;3569825;40;20248;-80
2021/08/03 06:31:01;;;;;;;3.83;2.20;;;;;;;16.04;75.82;101515.09;3573900;40;20241;-80
2021/08/03 06:33:27;;;;;;;3.33;2.40;;;;;;;16.23;73.73;101514.38;3573378;40;20234;-80
2021/08/03 06:35:53;;;;;;;2.97;1.80;;;;;;;16.12;74.57;101517.75;3565470;40;20775;-81
2021/08/03 06:38:18;;;;;;;5.03;2.00;;;;;;;16.29;74.37;101509.25;3565698;40;20296;-81
2021/08/03 06:40:53;;;;;;;2.97;2.07;;;;;;;16.68;72.78;101509.53;3565380;40;20325;-82
2021/08/03 06:43:25;;;;;;;6.33;2.10;;;;;;;17.13;70.65;101507.13;3565658;40;20251;-82
2021/08/03 06:45:57;;;;;;;2.30;1.57;;;;;;;17.15;70.36;101502.84;3570461;40;20233;-82
2021/08/03 06:48:30;;;;;;;2.90;1.50;;;;;;;17.22;68.55;101498.53;3576009;40;20292;-82
2021/08/03 06:51:01;;;;;;;1.37;1.20;;;;;;;17.08;69.12;101497.63;3576577;40;20227;-82
2021/08/03 06:53:28;;;;;;;1.30;1.17;;;;;;;17.21;68.73;101492.50;3576070;40;20222;-79
2021/08/03 06:55:56;;;;;;;2.23;1.40;;;;;;;17.48;68.48;101494.31;3574414;40;20259;-81
2021/08/03 06:58:45;;;;;;;2.07;1.30;;;;;;;17.48;67.68;101492.59;3574363;40;20230;-82
2021/08/03 07:01:16;;;;;;;3.20;1.20;;;;;;;17.55;66.48;101496.06;3579037;40;20230;-81
2021/08/03 07:03:47;;;;;;;1.67;1.20;;;;;;;17.14;67.50;101495.91;3575845;40;20238;-81
2021/08/03 07:06:17;;;;;;;1.27;1.00;;;;;;;16.99;69.12;101495.00;3567621;40;20259;-81
2021/08/03 07:08:43;;;;;;;1.67;1.10;;;;;;;17.16;68.33;101493.31;3571666;40;20307;-82
2021/08/03 07:11:10;;;;;;;2.87;1.30;;;;;;;17.53;67.90;101495.19;3570331;40;20219;-83
2021/08/03 07:13:37;;;;;;;1.80;1.00;;;;;;;17.48;67.50;101504.66;3575055;40;20292;-81
2021/08/03 07:16:03;;;;;;;1.27;1.00;;;;;;;17.66;66.78;101500.41;3573890;40;20245;-82
2021/08/03 07:18:28;;;;;;;1.20;1.03;;;;;;;17.60;67.26;101504.69;3575589;40;20250;-82
2021/08/03 07:20:54;;;;;;;1.37;0.83;;;;;;;17.59;66.29;101498.63;3575167;40;20347;-82
2021/08/03 07:23:20;;;;;;;1.90;1.20;;;;;;;17.75;66.23;101497.81;3574940;40;20222;-82
2021/08/03 07:25:47;;;;;;;1.07;0.90;;;;;;;17.70;66.57;101502.13;3574585;40;20427;-82
2021/08/03 07:28:12;;;;;;;1.77;0.90;;;;;;;17.84;66.72;101499.53;3569054;40;20231;-81
2021/08/03 07:30:38;;;;;;;1.10;1.00;;;;;;;17.97;65.58;101499.53;3573694;40;20339;-81
2021/08/03 07:33:03;;;;;;;1.33;1.23;;;;;;;18.44;63.48;101494.34;3574082;40;20288;-81
2021/08/03 07:35:28;;;;;;;1.97;1.07;;;;;;;18.67;61.55;101505.50;3574124;40;20243;-81
2021/08/03 07:37:53;;;;;;;1.00;0.90;;;;;;;18.60;61.44;101506.41;3572446;40;20223;-81
2021/08/03 07:40:19;;;;;;;1.63;0.80;;;;;;;18.78;61.82;101503.72;3573151;40;20242;-81
2021/08/03 07:42:44;;;;;;;1.30;1.07;;;;;;;18.80;62.65;101507.22;3575360;40;20241;-80
2021/08/03 07:45:10;;;;;;;1.73;0.80;;;;;;;19.02;60.85;101508.84;3574286;40;20226;-80
2021/08/03 07:47:35;;;;;;;1.40;0.90;;;;;;;19.04;59.90;101509.69;3573360;40;20215;-80
2021/08/03 07:50:00;;;;;;;2.27;0.90;;;;;;;18.95;60.24;101507.13;3573777;40;20245;-80
2021/08/03 07:52:26;;;;;;;1.57;0.90;;;;;;;19.16;58.74;101512.25;3573022;40;20248;-80
2021/08/03 07:54:51;;;;;;;2.33;0.90;;;;;;;18.97;59.35;101502.81;3573243;40;20230;-80
2021/08/03 07:57:17;;;;;;;1.40;0.90;;;;;;;18.83;61.23;101505.47;3574110;40;20627;-80
2021/08/03 07:59:42;;;;;;;1.40;0.83;;;;;;;18.95;60.38;101496.75;3573840;40;20347;-80
2021/08/03 08:02:08;;;;;;;1.93;0.90;;;;;;;19.03;60.07;101500.19;3574446;40;20237;-80
2021/08/03 08:04:33;;;;;;;0.83;0.80;;;;;;;19.24;59.76;101493.19;3573530;40;20255;-80
2021/08/03 08:06:58;;;;;;;1.87;1.20;;;;;;;19.47;59.44;101493.03;3574556;40;20601;-81
2021/08/03 08:09:23;;;;;;;0.73;0.50;;;;;;;19.70;59.64;101494.63;3574102;40;20234;-80
2021/08/03 08:11:49;;;;;;;0.60;0.60;;;;;;;19.89;58.67;101495.31;3574444;40;20222;-81
2021/08/03 08:14:14;;;;;;;1.00;0.80;;;;;;;20.23;56.67;101483.81;3574559;40;20214;-81
2021/08/03 08:16:39;;;;;;;1.20;0.70;;;;;;;20.40;56.75;101490.56;3575368;40;20511;-82
2021/08/03 08:19:05;;;;;;;1.00;0.80;;;;;;;20.60;56.08;101485.97;3581978;40;20250;-82
2021/08/03 08:21:33;;;;;;;0.93;0.60;;;;;;;20.77;53.11;101470.19;3576188;40;20316;-80
2021/08/03 08:24:02;;;;;;;0.90;0.70;;;;;;;21.06;49.42;101474.16;3576289;40;20244;-80
2021/08/03 08:26:28;;;;;;;0.93;0.60;;;;;;;21.08;48.60;101471.53;3575316;40;20230;-81
2021/08/03 08:28:54;;;;;;;0.73;0.57;;;;;;;20.78;52.25;101471.91;3575188;40;20243;-80
2021/08/03 08:31:19;;;;;;;1.13;0.70;;;;;;;20.88;50.96;101469.19;3574656;40;20234;-80
2021/08/03 08:33:45;;;;;;;1.50;0.67;;;;;;;20.72;51.51;101470.25;3574208;40;20230;-80
2021/08/03 08:36:10;;;;;;;0.80;0.80;;;;;;;20.91;49.32;101463.09;3574986;40;20223;-80
2021/08/03 08:38:35;;;;;;;1.43;0.80;;;;;;;20.70;50.15;101464.19;3574353;40;20246;-80
2021/08/03 08:41:01;;;;;;;1.07;0.70;;;;;;;20.79;51.56;101464.09;3573692;40;20223;-81
2021/08/03 08:43:27;;;;;;;1.43;0.70;;;;;;;21.05;49.77;101467.25;3574744;40;20222;-81
2021/08/03 08:45:58;;;;;;;1.57;0.80;;;;;;;21.50;46.70;101463.09;3575075;40;20233;-81
2021/08/03 08:48:23;;;;;;;2.30;0.70;;;;;;;21.65;45.30;101458.53;3575118;40;20282;-81
2021/08/03 08:50:55;;;;;;;1.43;0.73;;;;;;;21.83;45.48;101458.25;3574800;40;20226;-81
2021/08/03 08:53:33;;;;;;;1.60;0.87;;;;;;;21.57;45.68;101463.03;3574794;40;20222;-83
2021/08/03 08:55:59;;;;;;;2.37;1.90;;;;;;;21.31;49.03;101462.53;3563626;40;20325;-81
2021/08/03 08:58:24;;;;;;;1.60;1.50;;;;;;;21.34;50.02;101461.63;3582599;40;20255;-80
2021/08/03 09:00:49;;;;;;;1.40;0.80;;;;;;;21.52;47.24;101463.97;3582117;40;20389;-81
2021/08/03 09:03:15;;;;;;;2.20;0.73;;;;;;;21.43;48.90;101458.88;3575463;40;20222;-81
2021/08/03 09:05:41;;;;;;;1.17;0.70;;;;;;;21.55;48.71;101463.91;3573795;40;20604;-82
2021/08/03 09:08:08;;;;;;;1.47;0.73;;;;;;;21.40;47.38;101454.59;3574761;40;20219;-81
2021/08/03 09:10:39;;;;;;;1.00;0.73;;;;;;;21.13;49.54;101454.09;3574375;40;20312;-82
2021/08/03 09:13:16;;;;;;;2.40;0.80;;;;;;;21.02;50.55;101449.06;3573546;40;20638;-80
2021/08/03 09:15:44;;;;;;;0.70;0.67;;;;;;;21.00;50.28;101450.81;3572419;40;20250;-81
2021/08/03 09:18:15;;;;;;;0.50;0.50;;;;;;;20.89;50.96;101449.19;3573690;40;20652;-82
2021/08/03 09:20:45;;;;;;;0.73;0.50;;;;;;;20.85;51.04;101447.50;3576853;40;20237;-81
2021/08/03 09:23:11;;;;;;;0.90;0.70;;;;;;;21.02;50.26;101448.19;3578751;40;20233;-83
2021/08/03 09:25:39;;;;;;;1.43;0.70;;;;;;;21.05;50.75;101449.00;3575517;40;20227;-80
2021/08/03 09:28:06;;;;;;;1.87;1.07;;;;;;;21.35;48.95;101442.50;3569856;40;20243;-81
2021/08/03 09:30:37;;;;;;;1.20;0.87;;;;;;;21.50;47.98;101447.47;3564810;40;20307;-79
2021/08/03 09:33:04;;;;;;;1.33;0.83;;;;;;;21.25;49.01;101444.41;3565080;40;20234;-81
2021/08/03 09:35:30;;;;;;;1.37;0.70;;;;;;;21.23;49.83;101446.16;3564839;40;20239;-81
2021/08/03 09:37:58;;;;;;;1.10;0.77;;;;;;;21.31;49.25;101456.44;3564945;40;20223;-80
2021/08/03 09:40:32;;;;;;;1.40;0.67;;;;;;;21.30;48.67;101454.75;3564684;40;20258;-80
2021/08/03 09:43:06;;;;;;;1.07;0.77;;;;;;;21.24;49.18;101453.06;3565363;40;20241;-83
2021/08/03 09:45:34;;;;;;;0.90;0.60;;;;;;;21.24;49.79;101450.47;3564864;40;20235;-81
2021/08/03 09:48:16;;;;;;;1.20;0.90;;;;;;;21.57;48.06;101450.00;3572865;40;20255;-80
2021/08/03 09:51:08;;;;;;;0.70;0.70;;;;;;;21.94;47.13;101442.44;3564782;40;20246;-81
2021/08/03 09:53:44;;;;;;;1.17;0.60;;;;;;;22.08;48.49;101446.53;3565852;40;20246;-81
2021/08/03 09:56:15;;;;;;;0.90;0.80;;;;;;;22.66;45.78;101442.84;3555517;40;20647;-81
2021/08/03 09:58:52;;;;;;;2.00;0.90;;;;;;;22.58;45.42;101443.00;3564482;40;20526;-81
2021/08/03 10:01:24;;;;;;;3.37;0.90;;;;;;;22.52;45.55;101437.91;3581582;40;20222;-81
2021/08/03 10:03:55;;;;;;;1.40;0.70;;;;;;;22.65;45.34;101430.66;3573802;40;20227;-81
2021/08/03 10:06:21;;;;;;;1.33;0.70;;;;;;;22.82;43.02;101434.66;3573974;40;20222;-80
2021/08/03 10:08:51;;;;;;;0.53;0.53;;;;;;;22.60;44.01;101432.53;3574690;40;20253;-79
2021/08/03 10:11:17;;;;;;;1.70;0.60;;;;;;;22.71;43.27;101430.53;3575071;40;20230;-81
2021/08/03 10:13:44;;;;;;;0.60;0.57;;;;;;;22.51;43.82;101430.94;3574680;40;20234;-82
2021/08/03 10:16:10;;;;;;;0.80;0.52;;;;;;;22.26;46.40;101440.09;3575357;40;20288;-80
2021/08/03 10:18:41;;;;;;;1.30;0.70;;;;;;;22.10;45.95;101442.13;3575271;40;20226;-80
2021/08/03 10:21:08;;;;;;;1.03;0.60;;;;;;;22.30;44.48;101434.78;3575523;40;20231;-81
2021/08/03 10:23:37;;;;;;;0.82;0.75;;;;;;;22.44;45.27;101438.00;3574062;40;20256;-81
2021/08/03 10:26:13;;;;;;;0.77;0.50;;;;;;;22.44;44.64;101439.75;3582094;40;20300;-80
2021/08/03 10:28:39;;;;;;;1.37;0.60;;;;;;;22.69;45.50;101432.34;3582053;40;20299;-79
2021/08/03 10:31:04;;;;;;;1.13;0.60;;;;;;;23.13;43.52;101429.59;3575161;40;20917;-82
2021/08/03 10:33:44;;;;;;;0.80;0.80;;;;;;;23.31;43.16;101429.22;3575836;40;20238;-81
2021/08/03 10:36:41;;;;;;;1.77;0.90;;;;;;;23.32;42.93;101431.81;3573939;40;20245;-78
2021/08/03 10:39:10;;;;;;;0.75;0.70;;;;;;;23.24;42.78;101433.72;3571609;40;20257;-78
2021/08/03 10:41:55;;;;;;;1.33;0.80;;;;;;;23.48;43.23;101422.69;3572580;40;20518;-79
2021/08/03 10:44:50;;;;;;;0.53;0.50;;;;;;;23.57;44.35;101414.63;3574712;40;20642;-80
2021/08/03 10:47:31;;;;;;;1.70;0.60;;;;;;;23.94;42.93;101419.84;3575129;40;20594;-80
2021/08/03 10:50:02;;;;;;;0.77;0.50;;;;;;;24.13;42.93;101421.91;3575073;40;20514;-80
2021/08/03 10:52:46;;;;;;;0.57;0.57;;;;;;;24.13;42.83;101413.22;3574416;40;20256;-81
2021/08/03 10:55:38;;;;;;;0.73;0.70;;;;;;;24.14;43.48;101413.19;3573775;40;20230;-81
2021/08/03 10:58:09;;;;;;;1.33;0.70;;;;;;;24.22;42.36;101411.19;3574621;40;20219;-82
2021/08/03 11:00:43;;;;;;;1.17;0.70;;;;;;;24.41;40.14;101414.16;3577571;40;20220;-82
2021/08/03 11:03:38;;;;;;;0.80;0.60;;;;;;;24.31;40.84;101408.31;3576827;40;20267;-81
2021/08/03 11:06:04;;;;;;;1.77;0.65;;;;;;;24.30;42.38;101413.59;3571676;40;20227;-82
2021/08/03 11:08:31;;;;;;;1.17;0.57;;;;;;;24.49;41.98;101405.19;3576281;40;20619;-81
2021/08/03 11:11:06;;;;;;;0.80;0.60;;;;;;;24.55;39.78;101405.03;3576026;40;20227;-82
2021/08/03 11:13:36;;;;;;;1.13;0.80;;;;;;;24.28;41.95;101400.56;3577475;40;20233;-82
2021/08/03 11:16:01;;;;;;;0.60;0.60;;;;;;;24.57;40.42;101395.34;3578775;40;20217;-82
2021/08/03 11:18:44;;;;;;;0.95;0.50;;;;;;;24.35;40.85;101396.03;3578855;40;20241;-81
2021/08/03 11:21:11;;;;;;;1.42;0.90;;;;;;;24.24;41.61;101392.81;3575827;40;20252;-81
2021/08/03 11:24:06;;;;;;;1.65;0.73;;;;;;;24.17;42.11;101391.28;3577831;40;20214;-81
2021/08/03 11:26:49;;;;;;;1.10;0.70;;;;;;;24.23;41.43;101391.97;3577542;40;20231;-82
2021/08/03 11:29:16;;;;;;;1.33;0.63;;;;;;;24.26;42.23;101393.66;3577431;40;20253;-82
2021/08/03 11:31:50;;;;;;;3.63;0.98;;;;;;;24.39;40.07;101385.41;3576298;40;20278;-82